Latest Coastal Weather Observations for Devonport Airport

IDV60701

Issued at 7:45 am EDT Saturday 25 October 2014 (issued every 10 minutes, with the page automatically refreshed every 10 minutes)

About coastal observations | Map of coastal stations | Coastal observations for VIC | Marine services | Other Formats
Station Details ID: 091126 Name: DEVONPORT AIRPORT Lat: -41.17 Lon: 146.43 Height: 8.0 m
Data from the previous 72 hours. | See also: Recent months at Devonport Airport
Date/Time
EDT
Temp

°C
Wind Pressure Rain
since 9am
mm
Weather Cloud Vis
km
Sea
Height
m
Swell
Dir
 
Speed
knots
Gust
knots
hPa Trend Height
m
Period
s
Dir
25/07:30am 11.7 SSE 5 6 1014.0 - 1.2 - - 10 - - - -
25/07:00am 9.6 SSW 5 6 1013.5 - 1.2 - - 10 - - - -
25/06:30am 8.9 WSW 1 4 1013.0 - 1.2 - - 10 - - - -
25/06:00am 10.6 WSW 7 7 1012.3 - 1.2 - - 10 - - - -
25/05:30am 9.6 W 7 8 1012.1 - 1.2 - - 10 - - - -
25/05:00am 11.0 W 6 7 1011.7 - 1.2 - - 10 - - - -
25/04:30am 11.5 WSW 6 8 1011.5 - 1.2 - - 10 - - - -
25/04:00am 12.0 W 7 9 1011.4 - 1.2 - - 10 - - - -
25/03:30am 12.1 S 5 9 1011.4 - 1.2 - - 10 - - - -
25/03:00am 12.0 W 9 11 1011.2 - 1.2 - - 10 - - - -
25/02:30am 13.0 WNW 12 14 1011.1 - 1.2 - - 10 - - - -
25/02:00am 13.2 WNW 13 17 1011.1 - 1.2 - - 10 - - - -
25/01:30am 13.6 W 13 17 1010.7 - 1.2 - Partly cloudy 10 - - - -
25/01:29am 13.6 W 13 16 1010.7 - 1.2 - Partly cloudy 10 - - - -
25/01:25am 13.5 W 12 15 1010.8 - 1.2 - Partly cloudy 10 - - - -
25/01:03am 13.5 W 7 11 1011.1 - 1.2 - Cloudy 0.9 - - - -
25/01:00am 13.6 W 8 11 1011.1 - 1.2 - Cloudy 0.4 - - - -
25/12:35am 13.7 WNW 9 11 1010.9 - 1.2 - Cloudy 0.9 - - - -
25/12:34am 13.7 WNW 9 11 1010.9 - 1.2 - Cloudy 1 - - - -
25/12:30am 13.7 WNW 9 13 1011.0 - 1.2 - Cloudy 0.8 - - - -
25/12:26am 13.7 WNW 10 13 1011.0 - 1.2 - Cloudy 0.9 - - - -
25/12:16am 14.0 WNW 10 13 1011.1 - 1.2 - Cloudy 1 - - - -
25/12:00am 14.1 WNW 10 12 1010.9 - 1.2 - Cloudy 0.3 - - - -
 
Date/Time
EDT
Temp

°C
Wind Pressure Rain
since 9am
mm
Weather Cloud Vis
km
Sea
Height
m
Swell
Dir
 
Speed
knots
Gust
knots
hPa Trend Height
m
Period
s
Dir
24/11:33pm 14.3 WNW 10 12 1011.1 - 1.2 - Partly cloudy 1 - - - -
24/11:30pm 14.3 WNW 9 11 1011.1 - 1.2 - Partly cloudy 1 - - - -
24/11:21pm 14.3 NW 8 10 1011.0 - 1.2 - Partly cloudy 1 - - - -
24/11:00pm 14.4 WNW 8 10 1010.7 - 1.2 - Cloudy 0.5 - - - -
24/10:30pm 14.5 NNW 4 5 1010.8 - 1.2 - Cloudy 0.5 - - - -
24/10:00pm 14.6 N 4 5 1010.8 - 1.2 - Cloudy 0.6 - - - -
24/09:44pm 14.7 NNW 3 4 1010.9 - 1.0 - Cloudy 0.9 - - - -
24/09:30pm 14.9 NW 4 5 1011.2 - 1.0 - Cloudy 1 - - - -
24/09:00pm 15.1 N 5 5 1011.1 - 1.0 Drizzle Cloudy 2 - - - -
24/08:44pm 15.4 CALM 0 1 1011.2 - 1.0 - Cloudy 6 - - - -
24/08:30pm 15.2 W 2 4 1011.2 - 1.0 - Cloudy 10 - - - -
24/08:00pm 15.1 WSW 4 7 1010.8 - 1.0 - Cloudy 10 - - - -
24/07:30pm 14.9 SSE 5 7 1010.0 - 1.0 - Cloudy 10 - - - -
24/07:00pm 14.9 S 5 6 1010.2 - 1.0 - Cloudy 10 - - - -
24/06:30pm 14.8 S 6 8 1010.1 - 1.0 - Cloudy 7 - - - -
24/06:00pm 14.8 S 6 9 1010.3 - 0.8 Showers Cloudy 10 - - - -
24/05:30pm 14.7 S 6 8 1010.6 - 0.8 - Cloudy 10 - - - -
24/05:00pm 14.7 S 7 9 1010.6 - 0.8 - Cloudy 10 - - - -
24/04:30pm 14.5 SSE 7 9 1010.7 - 0.8 - Cloudy 10 - - - -
24/04:14pm 14.4 S 7 8 1011.3 - 0.8 - Cloudy 10 - - - -
24/04:00pm 14.3 SSE 9 11 1011.4 - 0.8 - Cloudy 5 - - - -
24/03:30pm 14.2 SSE 8 11 1011.9 - 0.4 - Cloudy 5 - - - -
24/03:19pm 14.2 SSE 8 11 1012.0 - 0.4 - Cloudy 6 - - - -
24/03:00pm 14.0 S 8 11 1012.4 - 0.2 Drizzle Cloudy 8 - - - -
24/02:30pm 13.9 S 10 13 1012.5 - 0.2 - Cloudy 10 - - - -
24/02:00pm 13.5 S 10 11 1013.1 - 0.2 - Cloudy 8 - - - -
24/01:41pm 13.7 SSE 9 12 1013.4 - 0.0 - Cloudy 10 - - - -
24/01:30pm 13.5 SSE 10 14 1013.6 - 0.0 - Cloudy 6 - - - -
24/01:23pm 13.4 SSE 11 15 1013.7 - 0.0 - Cloudy 6 - - - -
24/01:18pm 13.4 SSE 12 15 1013.8 - 0.0 - Cloudy 10 - - - -
24/01:00pm 13.1 SSE 12 15 1014.1 - 0.0 - Cloudy 5 - - - -
24/12:30pm 12.2 S 13 15 1014.8 - 0.0 - Cloudy 5 - - - -
24/12:00pm 11.7 S 13 16 1015.6 - 0.0 Drizzle Cloudy 4 - - - -
24/11:30am 11.3 S 13 18 1016.2 - 0.0 - Cloudy 6 - - - -
24/11:02am 11.4 SSE 12 16 1016.4 - 0.0 - Cloudy 6 - - - -
24/11:00am 11.5 SSE 12 15 1016.6 - 0.0 - Cloudy 7 - - - -
24/10:51am 11.4 SSE 12 16 1016.8 - 0.0 - Cloudy 8 - - - -
24/10:30am 11.1 SSE 11 14 1017.3 - 0.0 - Cloudy 4 - - - -
24/10:00am 11.0 SSE 11 16 1017.6 - 0.0 - Cloudy 5 - - - -
24/09:52am 11.0 S 9 12 1017.6 - 0.0 - Cloudy 6 - - - -
24/09:30am 10.8 S 11 13 1017.9 - 0.0 - Cloudy 10 - - - -
24/09:00am 11.4 SSE 10 12 1018.3 - 0.0 - Cloudy 9 - - - -
24/08:49am 11.5 SSE 10 13 1018.5 - 0.0 - Cloudy 10 - - - -
24/08:30am 11.4 S 8 10 1018.7 - 0.0 - Cloudy 10 - - - -
24/08:00am 11.5 SSE 9 13 1018.9 - 0.0 - Cloudy 10 - - - -
24/07:30am 10.8 S 10 13 1019.1 - 0.0 - Cloudy 10 - - - -
24/07:00am 10.6 SSE 11 14 1019.4 - 0.0 - Cloudy 10 - - - -
24/06:30am 10.2 S 10 11 1019.9 - 0.0 - Cloudy 10 - - - -
24/06:00am 10.0 S 9 11 1019.9 - 0.0 - Cloudy 10 - - - -
24/05:30am 10.4 SSE 11 14 1019.9 - 0.0 - Cloudy 10 - - - -
24/05:00am 10.3 SSE 13 16 1020.1 - 0.0 - Cloudy 10 - - - -
24/04:30am 10.0 SSE 13 17 1020.3 - 0.0 - Partly cloudy 10 - - - -
24/04:00am 9.6 SSE 12 16 1020.6 - 0.0 - Partly cloudy 10 - - - -
24/03:30am 9.4 SSE 12 16 1021.3 - 0.0 - Partly cloudy 10 - - - -
24/03:00am 9.2 SSE 12 16 1021.9 - 0.0 - Cloudy 10 - - - -
24/02:30am 8.5 SSE 10 11 1022.5 - 0.0 - Partly cloudy 10 - - - -
24/02:00am 8.2 SSE 11 13 1022.8 - 0.0 - - 10 - - - -
24/01:30am 8.8 SE 11 14 1023.1 - 0.0 - - 10 - - - -
24/01:00am 8.7 SE 7 8 1023.8 - 0.0 - - 10 - - - -
24/12:30am 9.4 E 8 10 1024.0 - 0.0 - - 10 - - - -
24/12:00am 10.2 E 9 11 1024.4 - 0.0 - Partly cloudy 10 - - - -
 
Date/Time
EDT
Temp

°C
Wind Pressure Rain
since 9am
mm
Weather Cloud Vis
km
Sea
Height
m
Swell
Dir
 
Speed
knots
Gust
knots
hPa Trend Height
m
Period
s
Dir
23/11:30pm 10.9 ENE 12 16 1024.3 - 0.0 - Partly cloudy 10 - - - -
23/11:00pm 11.9 ENE 16 20 1024.0 - 0.0 - - 10 - - - -
23/10:30pm 11.9 ENE 13 16 1024.2 - 0.0 - - 10 - - - -
23/10:00pm 11.4 ENE 12 14 1024.2 - 0.0 - - 10 - - - -
23/09:30pm 11.7 ENE 12 16 1023.9 - 0.0 - - 10 - - - -
23/09:00pm 12.9 ENE 14 20 1023.6 - 0.0 - - 10 - - - -
23/08:30pm 12.4 E 5 6 1023.7 - 0.0 - - 10 - - - -
23/08:00pm 13.3 NE 7 9 1023.3 - 0.0 - - 10 - - - -
23/07:30pm 13.7 N 5 7 1023.2 - 0.0 - - 10 - - - -
23/07:00pm 14.3 NNE 7 9 1022.8 - 0.0 - - 10 - - - -
23/06:30pm 14.9 NNE 7 9 1022.8 - 0.0 - - 10 - - - -
23/06:00pm 15.2 N 7 9 1022.8 - 0.0 - - 10 - - - -
23/05:30pm 15.5 N 7 9 1022.8 - 0.0 - - 10 - - - -
23/05:00pm 15.8 N 7 10 1022.9 - 0.0 - - 10 - - - -
23/04:30pm 15.6 N 8 11 1022.8 - 0.0 - - 10 - - - -
23/04:00pm 15.8 N 9 11 1022.8 - 0.0 - Partly cloudy 10 - - - -
23/03:30pm 15.8 N 9 12 1023.0 - 0.0 - Partly cloudy 10 - - - -
23/03:00pm 15.9 N 11 13 1022.9 - 0.0 - Mostly clear 10 - - - -
23/02:30pm 16.2 N 11 14 1023.0 - 0.0 - - 10 - - - -
23/02:00pm 15.5 N 14 16 1023.0 - 0.0 - - 10 - - - -
23/01:30pm 17.5 N 10 13 1022.8 - 0.0 - - 10 - - - -
23/01:00pm 17.7 N 10 11 1022.6 - 0.0 - - 10 - - - -
23/12:30pm 17.8 SE 9 13 1022.7 - 0.0 - - 10 - - - -
23/12:00pm 18.1 ESE 11 17 1023.0 - 0.0 - - 10 - - - -
23/11:30am 17.7 ESE 14 20 1023.1 - 0.0 - - 10 - - - -
23/11:00am 17.4 ESE 16 21 1023.3 - 0.0 - - 10 - - - -
23/10:30am 16.5 SE 12 16 1023.2 - 0.0 - - 10 - - - -
23/10:00am 16.2 SSE 15 21 1022.7 - 0.0 - - 10 - - - -
23/09:30am 15.2 SSE 23 28 1022.0 - 0.0 - - 10 - - - -
23/09:00am 14.5 SSE 22 32 1021.9 - 0.0 - Mostly clear 10 - - - -
23/08:30am 13.9 SSE 23 28 1021.6 - 0.0 - Partly cloudy 10 - - - -
23/08:00am 13.1 SSE 18 23 1021.5 - 0.0 - Cloudy 10 - - - -
23/07:30am 13.0 SSE 17 23 1021.1 - 0.0 - Cloudy 10 - - - -
23/07:00am 13.0 SSE 11 14 1020.5 - 0.0 - Partly cloudy 10 - - - -
23/06:30am 11.8 SW 4 5 1020.2 - 0.0 - - 10 - - - -
23/06:00am 11.0 SW 4 6 1019.9 - 0.0 - - 10 - - - -
23/05:30am 12.8 SE 7 10 1019.6 - 0.0 - - 10 - - - -
23/05:00am 13.0 SE 7 11 1019.3 - 0.0 - - 10 - - - -
23/04:30am 12.2 SE 6 8 1018.7 - 0.0 - - 10 - - - -
23/04:00am 13.0 SSE 10 13 1018.3 - 0.0 - - 10 - - - -
23/03:30am 13.1 SSE 7 9 1017.8 - 0.0 - - 10 - - - -
23/03:00am 13.0 SSE 3 6 1017.7 - 0.0 - - 10 - - - -
23/02:30am 13.1 SSE 8 10 1017.4 - 0.0 - - 10 - - - -
23/02:00am 11.9 SSE 6 8 1017.4 - 0.0 - - 10 - - - -
23/01:30am 12.1 SSE 6 8 1017.3 - 0.0 - - 10 - - - -
23/01:00am 11.6 SSE 8 10 1017.6 - 0.0 - - 10 - - - -
23/12:30am 10.9 SSE 5 7 1017.6 - 0.0 - - 10 - - - -
23/12:00am 11.3 S 6 8 1017.3 - 0.0 - - 10 - - - -
 
Date/Time
EDT
Temp

°C
Wind Pressure Rain
since 9am
mm
Weather Cloud Vis
km
Sea
Height
m
Swell
Dir
 
Speed
knots
Gust
knots
hPa Trend Height
m
Period
s
Dir
22/11:30pm 11.1 SSE 6 7 1017.0 - 0.0 - - 10 - - - -
22/11:00pm 10.5 SSE 4 5 1016.8 - 0.0 - - 10 - - - -
22/10:30pm 11.5 E 4 5 1016.6 - 0.0 - - 10 - - - -
22/10:00pm 11.0 NE 5 6 1016.6 - 0.0 - - 10 - - - -
22/09:30pm 12.2 SSE 3 5 1016.8 - 0.0 - - 10 - - - -
22/09:00pm 12.6 SE 3 3 1016.9 - 0.0 - Mostly cloudy 10 - - - -
22/08:30pm 13.2 WNW 5 7 1016.7 - 0.0 - - 10 - - - -
22/08:00pm 13.9 WNW 6 8 1016.5 - 0.0 - - 10 - - - -
22/07:30pm 14.7 N 5 11 1016.3 - 0.0 - Partly cloudy 10 - - - -
22/07:00pm 14.5 WSW 5 9 1016.5 - 0.0 - Partly cloudy 10 - - - -
22/06:30pm 14.8 NNE 9 11 1015.3 - 0.0 - Partly cloudy 10 - - - -
22/06:00pm 14.9 W 4 6 1016.6 - 0.0 - Cloudy 10 - - - -
22/05:30pm 15.2 NW 7 10 1017.3 - 0.0 - Cloudy 10 - - - -
22/05:00pm 15.2 N 7 8 1016.3 - 0.0 - Partly cloudy 10 - - - -
22/04:30pm 15.5 NE 5 7 1016.7 - 0.0 - Partly cloudy 10 - - - -
22/04:00pm 16.3 N 6 8 1016.8 - 0.0 - Partly cloudy 10 - - - -
22/03:30pm 16.4 N 6 8 1017.4 - 0.0 - - 10 - - - -
22/03:00pm 16.4 N 6 8 1017.4 - 0.0 - Mostly cloudy 10 - - - -
22/02:30pm 16.1 N 7 9 1017.6 - 0.0 - Partly cloudy 10 - - - -
22/02:00pm 16.8 NNE 8 11 1018.0 - 0.0 - - 10 - - - -
22/01:30pm 16.8 NNE 8 11 1018.6 - 0.0 - - 10 - - - -
22/01:00pm 16.8 N 7 9 1019.1 - 0.0 - - 10 - - - -
22/12:30pm 16.6 N 7 9 1019.6 - 0.0 - - 10 - - - -
22/12:00pm 16.8 N 6 9 1020.2 - 0.0 - - 10 - - - -
22/11:30am 16.4 N 6 8 1021.0 - 0.0 - Partly cloudy 10 - - - -
22/11:00am 16.0 E 4 8 1021.5 - 0.0 - Cloudy 10 - - - -
22/10:30am 15.9 ESE 5 8 1022.1 - 0.0 - Cloudy 10 - - - -
22/10:00am 15.5 SSE 8 11 1022.4 - 0.0 - Cloudy 10 - - - -
22/09:30am 14.5 S 9 11 1022.6 - 0.0 - Cloudy 10 - - - -
22/09:00am 13.9 S 9 11 1022.5 - - - Cloudy 10 - - - -
22/08:30am 12.8 SSE 7 9 1022.7 - - - Cloudy 10 - - - -
22/08:00am 12.4 S 7 9 1023.2 - - - Cloudy 10 - - - -

Other Formats:

Comma delimited format used in spreadsheet applications
http://www.bom.gov.au/fwo/IDV60701/IDV60701.95960.axf

JavaScript Object Notation format (JSON) in row-major order
http://www.bom.gov.au/fwo/IDV60701/IDV60701.95960.json